sensor_id;sensor_type;location;lat;lon;timestamp;P1;durP1;ratioP1;P2;durP2;ratioP2
1300;SDS011;59099;48.806;9.160;2022-12-01T00:00:36;33.23;;;21.20;;
1300;SDS011;59099;48.806;9.160;2022-12-01T00:03:02;31.80;;;20.80;;
1300;SDS011;59099;48.806;9.160;2022-12-01T00:05:33;34.47;;;21.70;;
1300;SDS011;59099;48.806;9.160;2022-12-01T00:07:59;34.33;;;20.73;;
1300;SDS011;59099;48.806;9.160;2022-12-01T00:10:25;34.23;;;20.23;;
1300;SDS011;59099;48.806;9.160;2022-12-01T00:12:52;33.40;;;21.30;;
1300;SDS011;59099;48.806;9.160;2022-12-01T00:15:18;33.37;;;19.87;;
1300;SDS011;59099;48.806;9.160;2022-12-01T00:17:44;32.47;;;19.50;;
1300;SDS011;59099;48.806;9.160;2022-12-01T00:20:12;29.57;;;19.00;;
1300;SDS011;59099;48.806;9.160;2022-12-01T00:22:45;31.17;;;19.07;;
1300;SDS011;59099;48.806;9.160;2022-12-01T00:25:13;33.40;;;20.10;;
1300;SDS011;59099;48.806;9.160;2022-12-01T00:27:40;35.17;;;21.07;;
1300;SDS011;59099;48.806;9.160;2022-12-01T00:30:08;29.83;;;19.30;;
1300;SDS011;59099;48.806;9.160;2022-12-01T00:32:35;36.43;;;21.90;;
1300;SDS011;59099;48.806;9.160;2022-12-01T00:35:02;33.43;;;19.13;;
1300;SDS011;59099;48.806;9.160;2022-12-01T00:40:10;28.47;;;19.63;;
1300;SDS011;59099;48.806;9.160;2022-12-01T00:42:37;31.30;;;19.13;;
1300;SDS011;59099;48.806;9.160;2022-12-01T00:45:02;30.07;;;18.50;;
1300;SDS011;59099;48.806;9.160;2022-12-01T00:47:29;28.37;;;18.80;;
1300;SDS011;59099;48.806;9.160;2022-12-01T00:49:54;31.27;;;20.10;;
1300;SDS011;59099;48.806;9.160;2022-12-01T00:52:20;30.47;;;20.10;;
1300;SDS011;59099;48.806;9.160;2022-12-01T00:54:46;31.73;;;19.30;;
1300;SDS011;59099;48.806;9.160;2022-12-01T00:57:12;32.73;;;20.23;;
1300;SDS011;59099;48.806;9.160;2022-12-01T00:59:38;31.93;;;20.23;;
1300;SDS011;59099;48.806;9.160;2022-12-01T01:02:05;29.53;;;18.47;;
1300;SDS011;59099;48.806;9.160;2022-12-01T01:04:32;34.37;;;20.10;;
1300;SDS011;59099;48.806;9.160;2022-12-01T01:06:59;31.27;;;19.27;;
1300;SDS011;59099;48.806;9.160;2022-12-01T01:09:26;29.90;;;17.80;;
1300;SDS011;59099;48.806;9.160;2022-12-01T01:11:59;28.53;;;18.17;;
1300;SDS011;59099;48.806;9.160;2022-12-01T01:14:25;27.73;;;18.70;;
1300;SDS011;59099;48.806;9.160;2022-12-01T01:16:51;30.00;;;19.53;;
1300;SDS011;59099;48.806;9.160;2022-12-01T01:19:18;30.90;;;19.93;;
1300;SDS011;59099;48.806;9.160;2022-12-01T01:21:44;30.00;;;19.27;;
1300;SDS011;59099;48.806;9.160;2022-12-01T01:24:09;27.63;;;18.73;;
1300;SDS011;59099;48.806;9.160;2022-12-01T01:26:38;30.00;;;17.83;;
1300;SDS011;59099;48.806;9.160;2022-12-01T01:29:07;29.63;;;18.23;;
1300;SDS011;59099;48.806;9.160;2022-12-01T01:31:33;28.33;;;17.47;;
1300;SDS011;59099;48.806;9.160;2022-12-01T01:34:01;26.57;;;17.50;;
1300;SDS011;59099;48.806;9.160;2022-12-01T01:36:28;31.43;;;18.90;;
1300;SDS011;59099;48.806;9.160;2022-12-01T01:38:54;25.30;;;17.73;;
1300;SDS011;59099;48.806;9.160;2022-12-01T01:41:21;28.27;;;17.97;;
1300;SDS011;59099;48.806;9.160;2022-12-01T01:43:52;29.93;;;18.97;;
1300;SDS011;59099;48.806;9.160;2022-12-01T01:46:23;26.20;;;18.40;;
1300;SDS011;59099;48.806;9.160;2022-12-01T01:51:28;30.23;;;18.93;;
1300;SDS011;59099;48.806;9.160;2022-12-01T01:54:01;29.50;;;18.87;;
1300;SDS011;59099;48.806;9.160;2022-12-01T01:56:39;26.40;;;17.10;;
1300;SDS011;59099;48.806;9.160;2022-12-01T01:59:10;30.00;;;18.30;;
1300;SDS011;59099;48.806;9.160;2022-12-01T02:01:38;29.80;;;18.77;;
1300;SDS011;59099;48.806;9.160;2022-12-01T02:04:04;23.70;;;16.00;;
1300;SDS011;59099;48.806;9.160;2022-12-01T02:06:31;25.67;;;15.63;;
1300;SDS011;59099;48.806;9.160;2022-12-01T02:08:57;27.50;;;18.30;;
1300;SDS011;59099;48.806;9.160;2022-12-01T02:14:07;24.10;;;16.90;;
1300;SDS011;59099;48.806;9.160;2022-12-01T02:16:53;26.30;;;17.87;;
1300;SDS011;59099;48.806;9.160;2022-12-01T02:22:28;27.60;;;18.00;;
1300;SDS011;59099;48.806;9.160;2022-12-01T02:25:19;28.83;;;18.00;;
1300;SDS011;59099;48.806;9.160;2022-12-01T02:28:25;26.07;;;17.50;;
1300;SDS011;59099;48.806;9.160;2022-12-01T02:33:51;25.60;;;17.20;;
1300;SDS011;59099;48.806;9.160;2022-12-01T02:39:03;24.93;;;15.73;;
1300;SDS011;59099;48.806;9.160;2022-12-01T02:41:51;28.70;;;17.20;;
1300;SDS011;59099;48.806;9.160;2022-12-01T02:44:28;23.53;;;15.67;;
1300;SDS011;59099;48.806;9.160;2022-12-01T02:47:08;24.83;;;15.70;;
1300;SDS011;59099;48.806;9.160;2022-12-01T02:49:43;25.13;;;16.60;;
1300;SDS011;59099;48.806;9.160;2022-12-01T02:52:15;26.57;;;17.00;;
1300;SDS011;59099;48.806;9.160;2022-12-01T02:54:43;27.20;;;16.70;;
1300;SDS011;59099;48.806;9.160;2022-12-01T02:57:11;23.60;;;15.97;;
1300;SDS011;59099;48.806;9.160;2022-12-01T02:59:38;27.00;;;16.03;;
1300;SDS011;59099;48.806;9.160;2022-12-01T03:05:33;25.13;;;15.63;;
1300;SDS011;59099;48.806;9.160;2022-12-01T03:08:47;24.20;;;15.23;;
1300;SDS011;59099;48.806;9.160;2022-12-01T03:10:56;27.47;;;17.40;;
1300;SDS011;59099;48.806;9.160;2022-12-01T03:13:37;25.20;;;15.40;;
1300;SDS011;59099;48.806;9.160;2022-12-01T03:16:38;26.70;;;16.77;;
1300;SDS011;59099;48.806;9.160;2022-12-01T03:22:06;23.33;;;15.23;;
1300;SDS011;59099;48.806;9.160;2022-12-01T03:24:43;24.60;;;15.07;;
1300;SDS011;59099;48.806;9.160;2022-12-01T03:27:12;25.90;;;16.73;;
1300;SDS011;59099;48.806;9.160;2022-12-01T03:29:45;23.83;;;15.07;;
1300;SDS011;59099;48.806;9.160;2022-12-01T03:32:17;21.63;;;15.10;;
1300;SDS011;59099;48.806;9.160;2022-12-01T03:35:00;28.10;;;17.17;;
1300;SDS011;59099;48.806;9.160;2022-12-01T03:40:04;24.87;;;15.87;;
1300;SDS011;59099;48.806;9.160;2022-12-01T03:42:34;24.33;;;15.83;;
1300;SDS011;59099;48.806;9.160;2022-12-01T03:45:09;25.37;;;15.23;;
1300;SDS011;59099;48.806;9.160;2022-12-01T03:47:39;27.17;;;16.80;;
1300;SDS011;59099;48.806;9.160;2022-12-01T03:50:05;25.23;;;15.97;;
1300;SDS011;59099;48.806;9.160;2022-12-01T04:00:14;23.13;;;16.23;;
1300;SDS011;59099;48.806;9.160;2022-12-01T04:02:41;27.00;;;17.83;;
1300;SDS011;59099;48.806;9.160;2022-12-01T04:05:09;28.17;;;16.70;;
1300;SDS011;59099;48.806;9.160;2022-12-01T04:07:35;26.27;;;16.13;;
1300;SDS011;59099;48.806;9.160;2022-12-01T04:10:02;26.57;;;16.97;;
1300;SDS011;59099;48.806;9.160;2022-12-01T04:12:28;27.37;;;17.00;;
1300;SDS011;59099;48.806;9.160;2022-12-01T04:14:58;27.03;;;18.27;;
1300;SDS011;59099;48.806;9.160;2022-12-01T04:17:36;27.57;;;17.23;;
1300;SDS011;59099;48.806;9.160;2022-12-01T04:20:03;31.13;;;19.13;;
1300;SDS011;59099;48.806;9.160;2022-12-01T04:22:30;29.80;;;18.77;;
1300;SDS011;59099;48.806;9.160;2022-12-01T04:24:57;28.13;;;17.97;;
1300;SDS011;59099;48.806;9.160;2022-12-01T04:27:22;26.57;;;17.80;;
1300;SDS011;59099;48.806;9.160;2022-12-01T04:29:48;27.93;;;17.70;;
1300;SDS011;59099;48.806;9.160;2022-12-01T04:32:14;31.93;;;19.00;;
1300;SDS011;59099;48.806;9.160;2022-12-01T04:34:41;31.10;;;18.53;;
1300;SDS011;59099;48.806;9.160;2022-12-01T04:37:07;30.97;;;17.57;;
1300;SDS011;59099;48.806;9.160;2022-12-01T04:39:34;31.27;;;18.10;;
1300;SDS011;59099;48.806;9.160;2022-12-01T04:42:00;26.67;;;18.27;;
1300;SDS011;59099;48.806;9.160;2022-12-01T04:44:27;32.73;;;18.33;;
1300;SDS011;59099;48.806;9.160;2022-12-01T04:46:52;26.37;;;17.87;;
1300;SDS011;59099;48.806;9.160;2022-12-01T04:49:19;30.37;;;17.57;;
1300;SDS011;59099;48.806;9.160;2022-12-01T04:51:46;30.60;;;16.77;;
1300;SDS011;59099;48.806;9.160;2022-12-01T04:54:12;26.77;;;17.83;;
1300;SDS011;59099;48.806;9.160;2022-12-01T04:56:38;30.23;;;18.33;;
1300;SDS011;59099;48.806;9.160;2022-12-01T04:59:04;25.57;;;17.50;;
1300;SDS011;59099;48.806;9.160;2022-12-01T05:01:29;26.43;;;17.67;;
1300;SDS011;59099;48.806;9.160;2022-12-01T05:03:55;28.83;;;17.30;;
1300;SDS011;59099;48.806;9.160;2022-12-01T05:06:22;28.23;;;18.43;;
1300;SDS011;59099;48.806;9.160;2022-12-01T05:08:59;29.10;;;18.47;;
1300;SDS011;59099;48.806;9.160;2022-12-01T05:11:27;24.97;;;17.33;;
1300;SDS011;59099;48.806;9.160;2022-12-01T05:13:54;26.90;;;19.20;;
1300;SDS011;59099;48.806;9.160;2022-12-01T05:16:27;28.07;;;18.53;;
1300;SDS011;59099;48.806;9.160;2022-12-01T05:18:58;30.70;;;18.13;;
1300;SDS011;59099;48.806;9.160;2022-12-01T05:21:44;25.87;;;17.33;;
1300;SDS011;59099;48.806;9.160;2022-12-01T05:24:12;30.67;;;18.20;;
1300;SDS011;59099;48.806;9.160;2022-12-01T05:26:38;30.43;;;19.20;;
1300;SDS011;59099;48.806;9.160;2022-12-01T05:29:05;35.87;;;18.57;;
1300;SDS011;59099;48.806;9.160;2022-12-01T05:31:31;30.00;;;18.67;;
1300;SDS011;59099;48.806;9.160;2022-12-01T05:33:57;30.03;;;19.07;;
1300;SDS011;59099;48.806;9.160;2022-12-01T05:36:23;29.50;;;17.50;;
1300;SDS011;59099;48.806;9.160;2022-12-01T05:38:48;30.57;;;18.77;;
1300;SDS011;59099;48.806;9.160;2022-12-01T05:41:14;28.07;;;17.77;;
1300;SDS011;59099;48.806;9.160;2022-12-01T05:43:40;31.03;;;20.70;;
1300;SDS011;59099;48.806;9.160;2022-12-01T05:46:06;28.90;;;18.63;;
1300;SDS011;59099;48.806;9.160;2022-12-01T05:48:32;29.03;;;18.87;;
1300;SDS011;59099;48.806;9.160;2022-12-01T05:50:59;29.83;;;19.60;;
1300;SDS011;59099;48.806;9.160;2022-12-01T05:53:24;26.87;;;18.13;;
1300;SDS011;59099;48.806;9.160;2022-12-01T05:55:53;27.37;;;18.97;;
1300;SDS011;59099;48.806;9.160;2022-12-01T05:58:20;33.47;;;19.00;;
1300;SDS011;59099;48.806;9.160;2022-12-01T06:00:47;27.83;;;18.40;;
1300;SDS011;59099;48.806;9.160;2022-12-01T06:03:13;28.67;;;18.83;;
1300;SDS011;59099;48.806;9.160;2022-12-01T06:05:39;29.07;;;18.90;;
1300;SDS011;59099;48.806;9.160;2022-12-01T06:08:05;27.67;;;18.37;;
1300;SDS011;59099;48.806;9.160;2022-12-01T06:10:31;29.23;;;18.20;;
1300;SDS011;59099;48.806;9.160;2022-12-01T06:12:57;31.03;;;19.50;;
1300;SDS011;59099;48.806;9.160;2022-12-01T06:15:23;29.03;;;19.10;;
1300;SDS011;59099;48.806;9.160;2022-12-01T06:17:49;30.30;;;18.20;;
1300;SDS011;59099;48.806;9.160;2022-12-01T06:20:15;28.10;;;18.03;;
1300;SDS011;59099;48.806;9.160;2022-12-01T06:22:40;26.70;;;18.17;;
1300;SDS011;59099;48.806;9.160;2022-12-01T06:25:06;27.00;;;16.13;;
1300;SDS011;59099;48.806;9.160;2022-12-01T06:27:33;27.60;;;18.03;;
1300;SDS011;59099;48.806;9.160;2022-12-01T06:30:00;25.97;;;18.17;;
1300;SDS011;59099;48.806;9.160;2022-12-01T06:32:27;32.13;;;19.13;;
1300;SDS011;59099;48.806;9.160;2022-12-01T06:34:56;33.20;;;19.00;;
1300;SDS011;59099;48.806;9.160;2022-12-01T06:37:26;36.03;;;19.60;;
1300;SDS011;59099;48.806;9.160;2022-12-01T06:39:52;30.57;;;19.20;;
1300;SDS011;59099;48.806;9.160;2022-12-01T06:42:19;28.37;;;18.27;;
1300;SDS011;59099;48.806;9.160;2022-12-01T06:44:45;33.00;;;18.83;;
1300;SDS011;59099;48.806;9.160;2022-12-01T06:47:11;30.43;;;19.83;;
1300;SDS011;59099;48.806;9.160;2022-12-01T06:49:38;30.30;;;18.27;;
1300;SDS011;59099;48.806;9.160;2022-12-01T06:52:04;30.07;;;17.60;;
1300;SDS011;59099;48.806;9.160;2022-12-01T06:54:31;29.37;;;19.33;;
1300;SDS011;59099;48.806;9.160;2022-12-01T06:57:03;35.20;;;19.80;;
1300;SDS011;59099;48.806;9.160;2022-12-01T06:59:29;36.00;;;20.73;;
1300;SDS011;59099;48.806;9.160;2022-12-01T07:01:55;32.03;;;20.70;;
1300;SDS011;59099;48.806;9.160;2022-12-01T07:04:21;30.97;;;20.87;;
1300;SDS011;59099;48.806;9.160;2022-12-01T07:06:47;31.80;;;17.90;;
1300;SDS011;59099;48.806;9.160;2022-12-01T07:09:13;34.73;;;19.90;;
1300;SDS011;59099;48.806;9.160;2022-12-01T07:11:39;32.13;;;19.97;;
1300;SDS011;59099;48.806;9.160;2022-12-01T07:14:05;33.63;;;18.90;;
1300;SDS011;59099;48.806;9.160;2022-12-01T07:16:35;30.57;;;19.43;;
1300;SDS011;59099;48.806;9.160;2022-12-01T07:19:01;31.17;;;20.03;;
1300;SDS011;59099;48.806;9.160;2022-12-01T07:21:33;31.07;;;19.20;;
1300;SDS011;59099;48.806;9.160;2022-12-01T07:23:59;35.00;;;23.10;;
1300;SDS011;59099;48.806;9.160;2022-12-01T07:26:25;30.47;;;18.83;;
1300;SDS011;59099;48.806;9.160;2022-12-01T07:28:51;30.40;;;18.93;;
1300;SDS011;59099;48.806;9.160;2022-12-01T07:31:17;31.30;;;18.57;;
1300;SDS011;59099;48.806;9.160;2022-12-01T07:33:43;31.67;;;18.97;;
1300;SDS011;59099;48.806;9.160;2022-12-01T07:36:10;30.80;;;18.60;;
1300;SDS011;59099;48.806;9.160;2022-12-01T07:38:37;28.57;;;19.17;;
1300;SDS011;59099;48.806;9.160;2022-12-01T07:41:04;32.10;;;19.30;;
1300;SDS011;59099;48.806;9.160;2022-12-01T07:43:31;29.10;;;19.43;;
1300;SDS011;59099;48.806;9.160;2022-12-01T07:46:08;29.33;;;19.07;;
1300;SDS011;59099;48.806;9.160;2022-12-01T07:48:38;29.33;;;18.90;;
1300;SDS011;59099;48.806;9.160;2022-12-01T07:51:05;30.00;;;19.27;;
1300;SDS011;59099;48.806;9.160;2022-12-01T07:53:38;31.37;;;17.70;;
1300;SDS011;59099;48.806;9.160;2022-12-01T07:56:04;30.20;;;18.10;;
1300;SDS011;59099;48.806;9.160;2022-12-01T07:58:30;26.50;;;17.73;;
1300;SDS011;59099;48.806;9.160;2022-12-01T08:00:56;29.80;;;19.40;;
1300;SDS011;59099;48.806;9.160;2022-12-01T08:03:22;29.17;;;19.40;;
1300;SDS011;59099;48.806;9.160;2022-12-01T08:05:58;27.17;;;18.93;;
1300;SDS011;59099;48.806;9.160;2022-12-01T08:08:25;31.57;;;19.50;;
1300;SDS011;59099;48.806;9.160;2022-12-01T08:10:51;30.50;;;19.37;;
1300;SDS011;59099;48.806;9.160;2022-12-01T08:13:21;31.70;;;17.97;;
1300;SDS011;59099;48.806;9.160;2022-12-01T08:15:48;27.63;;;17.60;;
1300;SDS011;59099;48.806;9.160;2022-12-01T08:18:14;26.90;;;17.43;;
1300;SDS011;59099;48.806;9.160;2022-12-01T08:20:39;27.57;;;18.73;;
1300;SDS011;59099;48.806;9.160;2022-12-01T08:23:05;31.57;;;19.33;;
1300;SDS011;59099;48.806;9.160;2022-12-01T08:25:32;29.77;;;20.60;;
1300;SDS011;59099;48.806;9.160;2022-12-01T08:27:59;29.00;;;18.77;;
1300;SDS011;59099;48.806;9.160;2022-12-01T08:30:29;27.97;;;18.50;;
1300;SDS011;59099;48.806;9.160;2022-12-01T08:32:56;29.13;;;17.70;;
1300;SDS011;59099;48.806;9.160;2022-12-01T08:35:23;28.33;;;17.60;;
1300;SDS011;59099;48.806;9.160;2022-12-01T08:37:52;31.43;;;19.47;;
1300;SDS011;59099;48.806;9.160;2022-12-01T08:40:18;28.83;;;18.50;;
1300;SDS011;59099;48.806;9.160;2022-12-01T08:42:45;30.40;;;19.37;;
1300;SDS011;59099;48.806;9.160;2022-12-01T08:45:12;25.67;;;18.03;;
1300;SDS011;59099;48.806;9.160;2022-12-01T08:47:39;29.53;;;18.10;;
1300;SDS011;59099;48.806;9.160;2022-12-01T08:50:05;27.37;;;17.47;;
1300;SDS011;59099;48.806;9.160;2022-12-01T08:52:32;27.73;;;17.30;;
1300;SDS011;59099;48.806;9.160;2022-12-01T08:54:59;25.37;;;17.10;;
1300;SDS011;59099;48.806;9.160;2022-12-01T08:57:27;23.80;;;17.30;;
1300;SDS011;59099;48.806;9.160;2022-12-01T08:59:55;24.87;;;17.60;;
1300;SDS011;59099;48.806;9.160;2022-12-01T09:02:20;27.33;;;18.10;;
1300;SDS011;59099;48.806;9.160;2022-12-01T09:04:56;27.40;;;17.80;;
1300;SDS011;59099;48.806;9.160;2022-12-01T09:07:22;27.07;;;17.40;;
1300;SDS011;59099;48.806;9.160;2022-12-01T09:09:49;24.67;;;17.47;;
1300;SDS011;59099;48.806;9.160;2022-12-01T09:12:21;27.27;;;16.97;;
1300;SDS011;59099;48.806;9.160;2022-12-01T09:14:47;29.47;;;18.00;;
1300;SDS011;59099;48.806;9.160;2022-12-01T09:17:14;24.50;;;16.40;;
1300;SDS011;59099;48.806;9.160;2022-12-01T09:19:41;25.50;;;18.23;;
1300;SDS011;59099;48.806;9.160;2022-12-01T09:22:09;24.90;;;17.83;;
1300;SDS011;59099;48.806;9.160;2022-12-01T09:24:35;27.43;;;18.30;;
1300;SDS011;59099;48.806;9.160;2022-12-01T09:27:02;25.90;;;18.17;;
1300;SDS011;59099;48.806;9.160;2022-12-01T09:29:29;28.17;;;19.20;;
1300;SDS011;59099;48.806;9.160;2022-12-01T09:31:56;28.60;;;18.33;;
1300;SDS011;59099;48.806;9.160;2022-12-01T09:34:26;27.27;;;18.03;;
1300;SDS011;59099;48.806;9.160;2022-12-01T09:36:53;26.80;;;17.00;;
1300;SDS011;59099;48.806;9.160;2022-12-01T09:39:21;28.33;;;17.17;;
1300;SDS011;59099;48.806;9.160;2022-12-01T09:44:50;29.00;;;19.23;;
1300;SDS011;59099;48.806;9.160;2022-12-01T09:52:24;28.50;;;18.13;;
1300;SDS011;59099;48.806;9.160;2022-12-01T09:54:52;25.70;;;17.47;;
1300;SDS011;59099;48.806;9.160;2022-12-01T09:59:54;31.37;;;18.43;;
1300;SDS011;59099;48.806;9.160;2022-12-01T10:02:35;24.03;;;16.63;;
1300;SDS011;59099;48.806;9.160;2022-12-01T10:05:06;26.43;;;17.77;;
1300;SDS011;59099;48.806;9.160;2022-12-01T10:07:45;23.67;;;17.00;;
1300;SDS011;59099;48.806;9.160;2022-12-01T10:10:27;28.80;;;19.10;;
1300;SDS011;59099;48.806;9.160;2022-12-01T10:18:28;29.00;;;17.60;;
1300;SDS011;59099;48.806;9.160;2022-12-01T10:21:07;23.93;;;16.57;;
1300;SDS011;59099;48.806;9.160;2022-12-01T10:26:30;24.73;;;16.30;;
1300;SDS011;59099;48.806;9.160;2022-12-01T10:36:55;26.93;;;18.97;;
1300;SDS011;59099;48.806;9.160;2022-12-01T10:42:13;28.47;;;18.17;;
1300;SDS011;59099;48.806;9.160;2022-12-01T10:45:02;29.27;;;18.87;;
1300;SDS011;59099;48.806;9.160;2022-12-01T10:47:31;27.23;;;18.33;;
1300;SDS011;59099;48.806;9.160;2022-12-01T10:49:58;23.57;;;16.60;;
1300;SDS011;59099;48.806;9.160;2022-12-01T10:52:31;28.40;;;17.27;;
1300;SDS011;59099;48.806;9.160;2022-12-01T10:55:25;25.23;;;15.90;;
1300;SDS011;59099;48.806;9.160;2022-12-01T10:57:56;27.70;;;18.27;;
1300;SDS011;59099;48.806;9.160;2022-12-01T11:00:25;26.10;;;16.97;;
1300;SDS011;59099;48.806;9.160;2022-12-01T11:02:56;26.17;;;17.30;;
1300;SDS011;59099;48.806;9.160;2022-12-01T11:05:23;27.73;;;17.87;;
1300;SDS011;59099;48.806;9.160;2022-12-01T11:07:51;25.53;;;18.23;;
1300;SDS011;59099;48.806;9.160;2022-12-01T11:12:58;28.90;;;18.53;;
1300;SDS011;59099;48.806;9.160;2022-12-01T11:15:36;26.97;;;17.57;;
1300;SDS011;59099;48.806;9.160;2022-12-01T11:21:12;25.43;;;16.50;;
1300;SDS011;59099;48.806;9.160;2022-12-01T11:23:52;27.03;;;18.67;;
1300;SDS011;59099;48.806;9.160;2022-12-01T11:26:29;24.77;;;16.67;;
1300;SDS011;59099;48.806;9.160;2022-12-01T11:29:01;32.00;;;18.70;;
1300;SDS011;59099;48.806;9.160;2022-12-01T11:31:46;26.00;;;18.10;;
1300;SDS011;59099;48.806;9.160;2022-12-01T11:34:16;27.00;;;17.43;;
1300;SDS011;59099;48.806;9.160;2022-12-01T11:36:49;25.80;;;17.70;;
1300;SDS011;59099;48.806;9.160;2022-12-01T11:39:38;24.73;;;16.63;;
1300;SDS011;59099;48.806;9.160;2022-12-01T11:47:27;24.17;;;18.10;;
1300;SDS011;59099;48.806;9.160;2022-12-01T11:49:57;24.40;;;15.17;;
1300;SDS011;59099;48.806;9.160;2022-12-01T11:52:28;23.70;;;16.27;;
1300;SDS011;59099;48.806;9.160;2022-12-01T11:57:36;28.17;;;17.80;;
1300;SDS011;59099;48.806;9.160;2022-12-01T12:00:12;22.73;;;15.30;;
1300;SDS011;59099;48.806;9.160;2022-12-01T12:02:50;28.70;;;18.47;;
1300;SDS011;59099;48.806;9.160;2022-12-01T12:05:55;24.10;;;16.47;;
1300;SDS011;59099;48.806;9.160;2022-12-01T12:16:45;21.80;;;14.83;;
1300;SDS011;59099;48.806;9.160;2022-12-01T12:22:24;20.40;;;14.50;;
1300;SDS011;59099;48.806;9.160;2022-12-01T12:25:47;28.77;;;16.57;;
1300;SDS011;59099;48.806;9.160;2022-12-01T12:30:46;21.50;;;15.40;;
1300;SDS011;59099;48.806;9.160;2022-12-01T12:33:38;22.47;;;16.27;;
1300;SDS011;59099;48.806;9.160;2022-12-01T12:42:07;23.40;;;17.03;;
1300;SDS011;59099;48.806;9.160;2022-12-01T12:50:24;25.77;;;16.20;;
1300;SDS011;59099;48.806;9.160;2022-12-01T12:53:20;20.67;;;14.90;;
1300;SDS011;59099;48.806;9.160;2022-12-01T12:55:51;23.80;;;15.17;;
1300;SDS011;59099;48.806;9.160;2022-12-01T12:58:26;36.20;;;22.90;;
1300;SDS011;59099;48.806;9.160;2022-12-01T13:01:00;24.00;;;16.70;;
1300;SDS011;59099;48.806;9.160;2022-12-01T13:03:45;26.33;;;16.20;;
1300;SDS011;59099;48.806;9.160;2022-12-01T13:09:11;21.47;;;15.03;;
1300;SDS011;59099;48.806;9.160;2022-12-01T13:11:43;27.77;;;15.63;;
1300;SDS011;59099;48.806;9.160;2022-12-01T13:16:50;22.33;;;17.10;;
1300;SDS011;59099;48.806;9.160;2022-12-01T13:21:53;23.10;;;15.80;;
1300;SDS011;59099;48.806;9.160;2022-12-01T13:24:24;21.33;;;14.37;;
1300;SDS011;59099;48.806;9.160;2022-12-01T13:26:55;22.57;;;15.47;;
1300;SDS011;59099;48.806;9.160;2022-12-01T13:29:24;24.67;;;15.23;;
1300;SDS011;59099;48.806;9.160;2022-12-01T13:31:53;23.00;;;16.03;;
1300;SDS011;59099;48.806;9.160;2022-12-01T13:36:57;25.83;;;15.43;;
1300;SDS011;59099;48.806;9.160;2022-12-01T13:39:24;21.87;;;15.53;;
1300;SDS011;59099;48.806;9.160;2022-12-01T13:44:44;22.63;;;15.80;;
1300;SDS011;59099;48.806;9.160;2022-12-01T13:49:45;31.73;;;22.10;;
1300;SDS011;59099;48.806;9.160;2022-12-01T13:57:38;22.47;;;15.37;;
1300;SDS011;59099;48.806;9.160;2022-12-01T14:00:31;21.60;;;15.53;;
1300;SDS011;59099;48.806;9.160;2022-12-01T14:03:44;24.33;;;15.90;;
1300;SDS011;59099;48.806;9.160;2022-12-01T14:08:27;27.10;;;16.67;;
1300;SDS011;59099;48.806;9.160;2022-12-01T14:13:57;24.13;;;15.70;;
1300;SDS011;59099;48.806;9.160;2022-12-01T14:16:47;23.10;;;15.90;;
1300;SDS011;59099;48.806;9.160;2022-12-01T14:25:00;24.67;;;16.87;;
1300;SDS011;59099;48.806;9.160;2022-12-01T14:39:14;24.83;;;13.97;;
1300;SDS011;59099;48.806;9.160;2022-12-01T14:42:00;20.10;;;15.40;;
1300;SDS011;59099;48.806;9.160;2022-12-01T14:45:05;24.23;;;14.77;;
1300;SDS011;59099;48.806;9.160;2022-12-01T14:47:43;23.53;;;15.47;;
1300;SDS011;59099;48.806;9.160;2022-12-01T14:50:15;21.93;;;15.00;;
1300;SDS011;59099;48.806;9.160;2022-12-01T14:52:48;22.67;;;15.70;;
1300;SDS011;59099;48.806;9.160;2022-12-01T14:55:22;22.90;;;15.10;;
1300;SDS011;59099;48.806;9.160;2022-12-01T14:57:58;25.10;;;17.50;;
1300;SDS011;59099;48.806;9.160;2022-12-01T15:00:28;22.37;;;16.50;;
1300;SDS011;59099;48.806;9.160;2022-12-01T15:02:56;24.77;;;14.70;;
1300;SDS011;59099;48.806;9.160;2022-12-01T15:05:25;28.57;;;16.90;;
1300;SDS011;59099;48.806;9.160;2022-12-01T15:07:54;23.80;;;15.80;;
1300;SDS011;59099;48.806;9.160;2022-12-01T15:12:52;24.77;;;15.47;;
1300;SDS011;59099;48.806;9.160;2022-12-01T15:15:20;25.17;;;15.60;;
1300;SDS011;59099;48.806;9.160;2022-12-01T15:17:51;20.90;;;15.47;;
1300;SDS011;59099;48.806;9.160;2022-12-01T15:20:38;21.50;;;14.60;;
1300;SDS011;59099;48.806;9.160;2022-12-01T15:23:07;23.30;;;15.80;;
1300;SDS011;59099;48.806;9.160;2022-12-01T15:25:39;22.60;;;15.40;;
1300;SDS011;59099;48.806;9.160;2022-12-01T15:28:14;23.80;;;15.53;;
1300;SDS011;59099;48.806;9.160;2022-12-01T15:30:44;21.63;;;15.67;;
1300;SDS011;59099;48.806;9.160;2022-12-01T15:33:23;23.57;;;15.93;;
1300;SDS011;59099;48.806;9.160;2022-12-01T15:35:56;26.70;;;15.10;;
1300;SDS011;59099;48.806;9.160;2022-12-01T15:38:25;23.40;;;14.80;;
1300;SDS011;59099;48.806;9.160;2022-12-01T15:40:54;21.73;;;15.10;;
1300;SDS011;59099;48.806;9.160;2022-12-01T15:43:27;26.43;;;16.13;;
1300;SDS011;59099;48.806;9.160;2022-12-01T15:46:24;22.97;;;15.43;;
1300;SDS011;59099;48.806;9.160;2022-12-01T15:49:14;22.27;;;15.87;;
1300;SDS011;59099;48.806;9.160;2022-12-01T15:51:46;21.60;;;15.17;;
1300;SDS011;59099;48.806;9.160;2022-12-01T15:54:17;23.77;;;15.47;;
1300;SDS011;59099;48.806;9.160;2022-12-01T15:56:50;24.20;;;16.03;;
1300;SDS011;59099;48.806;9.160;2022-12-01T15:59:39;25.00;;;17.03;;
1300;SDS011;59099;48.806;9.160;2022-12-01T16:05:02;27.67;;;17.60;;
1300;SDS011;59099;48.806;9.160;2022-12-01T16:07:36;24.23;;;15.43;;
1300;SDS011;59099;48.806;9.160;2022-12-01T16:10:02;23.53;;;16.17;;
1300;SDS011;59099;48.806;9.160;2022-12-01T16:12:33;26.90;;;15.40;;
1300;SDS011;59099;48.806;9.160;2022-12-01T16:17:46;24.67;;;17.17;;
1300;SDS011;59099;48.806;9.160;2022-12-01T16:22:49;26.83;;;17.93;;
1300;SDS011;59099;48.806;9.160;2022-12-01T16:28:02;32.37;;;19.60;;
1300;SDS011;59099;48.806;9.160;2022-12-01T16:30:33;29.80;;;19.23;;
1300;SDS011;59099;48.806;9.160;2022-12-01T16:33:13;29.80;;;18.07;;
1300;SDS011;59099;48.806;9.160;2022-12-01T16:35:46;28.70;;;18.60;;
1300;SDS011;59099;48.806;9.160;2022-12-01T16:38:19;28.97;;;19.40;;
1300;SDS011;59099;48.806;9.160;2022-12-01T16:40:47;30.93;;;19.40;;
1300;SDS011;59099;48.806;9.160;2022-12-01T16:43:15;27.23;;;19.30;;
1300;SDS011;59099;48.806;9.160;2022-12-01T16:45:43;31.03;;;19.10;;
1300;SDS011;59099;48.806;9.160;2022-12-01T16:48:09;28.70;;;18.17;;
1300;SDS011;59099;48.806;9.160;2022-12-01T16:50:38;29.90;;;19.63;;
1300;SDS011;59099;48.806;9.160;2022-12-01T16:53:04;31.00;;;21.73;;
1300;SDS011;59099;48.806;9.160;2022-12-01T16:58:11;26.90;;;18.00;;
1300;SDS011;59099;48.806;9.160;2022-12-01T17:00:37;28.63;;;18.40;;
1300;SDS011;59099;48.806;9.160;2022-12-01T17:03:06;24.80;;;17.70;;
1300;SDS011;59099;48.806;9.160;2022-12-01T17:05:32;21.83;;;16.70;;
1300;SDS011;59099;48.806;9.160;2022-12-01T17:07:58;26.13;;;17.57;;
1300;SDS011;59099;48.806;9.160;2022-12-01T17:10:24;26.87;;;19.13;;
1300;SDS011;59099;48.806;9.160;2022-12-01T17:12:54;28.40;;;17.87;;
1300;SDS011;59099;48.806;9.160;2022-12-01T17:15:23;26.47;;;17.23;;
1300;SDS011;59099;48.806;9.160;2022-12-01T17:17:50;22.90;;;17.30;;
1300;SDS011;59099;48.806;9.160;2022-12-01T17:20:22;26.07;;;18.40;;
1300;SDS011;59099;48.806;9.160;2022-12-01T17:22:50;26.43;;;16.60;;
1300;SDS011;59099;48.806;9.160;2022-12-01T17:25:16;30.47;;;18.90;;
1300;SDS011;59099;48.806;9.160;2022-12-01T17:27:42;27.53;;;18.20;;
1300;SDS011;59099;48.806;9.160;2022-12-01T17:30:08;29.27;;;19.07;;
1300;SDS011;59099;48.806;9.160;2022-12-01T17:32:36;24.33;;;17.00;;
1300;SDS011;59099;48.806;9.160;2022-12-01T17:35:02;27.10;;;17.57;;